MUHA/HAV METAR and TAF weather

Enter ICAO airport designator
Station Type Date Time Source
MUHA METAR 2019/08/26 06:55 UTC NOAA

MUHA 260655Z 00000KT 8000 FEW025 25/25 Q1014


Station Type Date Time Source
MUHA Decoded METAR 2019/08/26 06:55 UTC NOAA

Station name not available
Aug 26, 2019 - 02:55 AM EDT / 2019.08.26 0655 UTC
Wind: Calm:0
Visibility: 4 mile(s):0
Sky conditions: mostly clear
Temperature: 77 F (25 C)
Dew Point: 77 F (25 C)
Relative Humidity: 100%
Pressure (altimeter): 29.94 in. Hg (1014 hPa)
ob: MUHA 260655Z 00000KT 8000 FEW025 25/25 Q1014
cycle: 7

Station Type Date Time Source
MUHA TAF 2019/08/26 06:03 UTC NOAA

TAF MUHA 260500Z 2606/2706 VRB03KT 9000 FEW030
BECMG 2614/2616 18008KT
TEMPO 2619/2623 VRB10KT 3000 TSRA FEW018CB BKN030
BECMG 2701/2703 VRB03KT

Example: see airport list